sensor_id;sensor_type;location;lat;lon;timestamp;pressure;altitude;pressure_sealevel;temperature;humidity
23059;BME280;30585;51.502;7.218;2022-09-20T00:01:08;151832.00;;;6.46;100.00
23059;BME280;30585;51.502;7.218;2022-09-20T00:03:38;151856.47;;;6.56;100.00
23059;BME280;30585;51.502;7.218;2022-09-20T00:06:07;151828.13;;;6.45;100.00
23059;BME280;30585;51.502;7.218;2022-09-20T00:08:36;151843.63;;;6.51;100.00
23059;BME280;30585;51.502;7.218;2022-09-20T00:11:07;151835.88;;;6.48;100.00
23059;BME280;30585;51.502;7.218;2022-09-20T00:13:37;151829.44;;;6.45;100.00
23059;BME280;30585;51.502;7.218;2022-09-20T00:16:07;151829.44;;;6.45;100.00
23059;BME280;30585;51.502;7.218;2022-09-20T00:18:35;151804.94;;;6.35;100.00
23059;BME280;30585;51.502;7.218;2022-09-20T00:21:03;151792.06;;;6.30;100.00
23059;BME280;30585;51.502;7.218;2022-09-20T00:23:32;151823.00;;;6.43;100.00
23059;BME280;30585;51.502;7.218;2022-09-20T00:26:03;151804.94;;;6.35;100.00
23059;BME280;30585;51.502;7.218;2022-09-20T00:28:33;151804.94;;;6.35;100.00
23059;BME280;30585;51.502;7.218;2022-09-20T00:31:01;151788.22;;;6.29;100.00
23059;BME280;30585;51.502;7.218;2022-09-20T00:33:29;151808.81;;;6.37;100.00
23059;BME280;30585;51.502;7.218;2022-09-20T00:36:11;151826.84;;;6.44;100.00
23059;BME280;30585;51.502;7.218;2022-09-20T00:38:38;151828.13;;;6.45;100.00
23059;BME280;30585;51.502;7.218;2022-09-20T00:41:07;151828.13;;;6.45;100.00
23059;BME280;30585;51.502;7.218;2022-09-20T00:43:39;151837.19;;;6.48;100.00
23059;BME280;30585;51.502;7.218;2022-09-20T00:46:18;151865.50;;;6.60;100.00
23059;BME280;30585;51.502;7.218;2022-09-20T00:48:51;151851.34;;;6.54;100.00
23059;BME280;30585;51.502;7.218;2022-09-20T00:51:25;151870.66;;;6.62;100.00
23059;BME280;30585;51.502;7.218;2022-09-20T00:53:56;151882.25;;;6.66;100.00
23059;BME280;30585;51.502;7.218;2022-09-20T00:56:28;151871.97;;;6.62;100.00
23059;BME280;30585;51.502;7.218;2022-09-20T00:59:03;151891.28;;;6.70;100.00
23059;BME280;30585;51.502;7.218;2022-09-20T01:01:33;151866.81;;;6.60;100.00
23059;BME280;30585;51.502;7.218;2022-09-20T01:04:01;151861.66;;;6.58;100.00
23059;BME280;30585;51.502;7.218;2022-09-20T01:06:31;151866.81;;;6.60;100.00
23059;BME280;30585;51.502;7.218;2022-09-20T01:09:02;151855.22;;;6.55;100.00
23059;BME280;30585;51.502;7.218;2022-09-20T01:11:34;151837.19;;;6.48;100.00
23059;BME280;30585;51.502;7.218;2022-09-20T01:14:03;151799.81;;;6.33;100.00
23059;BME280;30585;51.502;7.218;2022-09-20T01:16:31;151817.84;;;6.41;100.00
23059;BME280;30585;51.502;7.218;2022-09-20T01:19:06;151784.31;;;6.27;100.00
23059;BME280;30585;51.502;7.218;2022-09-20T01:21:35;151807.50;;;6.36;100.00
23059;BME280;30585;51.502;7.218;2022-09-20T01:24:07;151819.09;;;6.41;100.00
23059;BME280;30585;51.502;7.218;2022-09-20T01:27:03;151792.06;;;6.30;100.00
23059;BME280;30585;51.502;7.218;2022-09-20T01:29:52;151788.22;;;6.29;100.00
23059;BME280;30585;51.502;7.218;2022-09-20T01:32:24;151752.13;;;6.14;100.00
23059;BME280;30585;51.502;7.218;2022-09-20T01:34:58;151779.19;;;6.25;100.00
23059;BME280;30585;51.502;7.218;2022-09-20T01:37:32;151771.47;;;6.22;100.00
23059;BME280;30585;51.502;7.218;2022-09-20T01:40:08;151766.28;;;6.20;100.00
23059;BME280;30585;51.502;7.218;2022-09-20T01:42:45;151744.38;;;6.11;100.00
23059;BME280;30585;51.502;7.218;2022-09-20T01:45:22;151757.28;;;6.16;100.00
23059;BME280;30585;51.502;7.218;2022-09-20T01:48:02;151743.09;;;6.11;100.00
23059;BME280;30585;51.502;7.218;2022-09-20T01:50:42;151732.78;;;6.06;100.00
23059;BME280;30585;51.502;7.218;2022-09-20T01:53:34;151732.78;;;6.06;100.00
23059;BME280;30585;51.502;7.218;2022-09-20T01:59:33;151737.94;;;6.08;100.00
23059;BME280;30585;51.502;7.218;2022-09-20T02:02:13;151734.09;;;6.07;100.00
23059;BME280;30585;51.502;7.218;2022-09-20T02:05:07;151725.09;;;6.03;100.00
23059;BME280;30585;51.502;7.218;2022-09-20T02:11:03;151727.66;;;6.04;100.00
23059;BME280;30585;51.502;7.218;2022-09-20T02:13:47;151713.44;;;5.99;100.00
23059;BME280;30585;51.502;7.218;2022-09-20T02:16:42;151722.50;;;6.02;100.00
23059;BME280;30585;51.502;7.218;2022-09-20T02:19:38;151708.28;;;5.97;100.00
23059;BME280;30585;51.502;7.218;2022-09-20T02:22:25;151719.91;;;6.01;100.00
23059;BME280;30585;51.502;7.218;2022-09-20T02:25:03;151719.91;;;6.01;100.00
23059;BME280;30585;51.502;7.218;2022-09-20T02:27:42;151696.69;;;5.92;100.00
23059;BME280;30585;51.502;7.218;2022-09-20T02:30:22;151700.53;;;5.93;100.00
23059;BME280;30585;51.502;7.218;2022-09-20T02:33:15;151686.38;;;5.88;100.00
23059;BME280;30585;51.502;7.218;2022-09-20T02:35:58;151668.34;;;5.81;100.00
23059;BME280;30585;51.502;7.218;2022-09-20T02:38:40;151696.69;;;5.92;100.00
23059;BME280;30585;51.502;7.218;2022-09-20T02:41:39;151700.53;;;5.93;100.00
23059;BME280;30585;51.502;7.218;2022-09-20T02:44:16;151697.97;;;5.92;100.00
23059;BME280;30585;51.502;7.218;2022-09-20T02:46:51;151685.09;;;5.87;100.00
23059;BME280;30585;51.502;7.218;2022-09-20T02:49:28;151670.94;;;5.82;100.00
23059;BME280;30585;51.502;7.218;2022-09-20T02:52:06;151645.16;;;5.71;100.00
23059;BME280;30585;51.502;7.218;2022-09-20T02:54:44;151668.34;;;5.81;100.00
23059;BME280;30585;51.502;7.218;2022-09-20T02:57:22;151651.59;;;5.74;100.00
23059;BME280;30585;51.502;7.218;2022-09-20T02:59:56;151649.00;;;5.73;100.00
23059;BME280;30585;51.502;7.218;2022-09-20T03:02:26;151634.88;;;5.67;100.00
23059;BME280;30585;51.502;7.218;2022-09-20T03:05:07;151615.56;;;5.59;100.00
23059;BME280;30585;51.502;7.218;2022-09-20T03:07:50;151600.06;;;5.53;100.00
23059;BME280;30585;51.502;7.218;2022-09-20T03:10:26;151573.06;;;5.42;100.00
23059;BME280;30585;51.502;7.218;2022-09-20T03:13:12;151596.22;;;5.52;100.00
23059;BME280;30585;51.502;7.218;2022-09-20T03:15:51;151591.06;;;5.50;100.00
23059;BME280;30585;51.502;7.218;2022-09-20T03:18:32;151560.19;;;5.37;100.00
23059;BME280;30585;51.502;7.218;2022-09-20T03:21:10;151549.88;;;5.33;100.00
23059;BME280;30585;51.502;7.218;2022-09-20T03:23:58;151551.19;;;5.34;100.00
23059;BME280;30585;51.502;7.218;2022-09-20T03:26:36;151543.44;;;5.30;100.00
23059;BME280;30585;51.502;7.218;2022-09-20T03:29:16;151537.03;;;5.28;100.00
23059;BME280;30585;51.502;7.218;2022-09-20T03:32:03;151512.53;;;5.18;100.00
23059;BME280;30585;51.502;7.218;2022-09-20T03:34:46;151512.53;;;5.18;100.00
23059;BME280;30585;51.502;7.218;2022-09-20T03:37:29;151513.84;;;5.19;100.00
23059;BME280;30585;51.502;7.218;2022-09-20T03:40:18;151508.69;;;5.17;100.00
23059;BME280;30585;51.502;7.218;2022-09-20T03:42:51;151520.28;;;5.21;100.00
23059;BME280;30585;51.502;7.218;2022-09-20T03:45:31;151508.69;;;5.17;100.00
23059;BME280;30585;51.502;7.218;2022-09-20T03:48:16;151494.53;;;5.11;100.00
23059;BME280;30585;51.502;7.218;2022-09-20T03:51:02;151484.22;;;5.07;100.00
23059;BME280;30585;51.502;7.218;2022-09-20T03:53:53;151477.78;;;5.04;100.00
23059;BME280;30585;51.502;7.218;2022-09-20T03:56:40;151482.94;;;5.06;100.00
23059;BME280;30585;51.502;7.218;2022-09-20T03:59:42;151467.50;;;5.00;100.00
23059;BME280;30585;51.502;7.218;2022-09-20T04:02:35;151472.63;;;5.02;100.00
23059;BME280;30585;51.502;7.218;2022-09-20T04:05:08;151472.63;;;5.02;100.00
23059;BME280;30585;51.502;7.218;2022-09-20T04:07:49;151461.03;;;4.97;100.00
23059;BME280;30585;51.502;7.218;2022-09-20T04:10:28;151440.47;;;4.89;100.00
23059;BME280;30585;51.502;7.218;2022-09-20T04:13:14;151467.50;;;5.00;100.00
23059;BME280;30585;51.502;7.218;2022-09-20T04:15:57;151464.94;;;4.99;100.00
23059;BME280;30585;51.502;7.218;2022-09-20T04:18:34;151484.22;;;5.07;100.00
23059;BME280;30585;51.502;7.218;2022-09-20T04:21:05;151485.53;;;5.07;100.00
23059;BME280;30585;51.502;7.218;2022-09-20T04:23:43;151489.38;;;5.09;100.00
23059;BME280;30585;51.502;7.218;2022-09-20T04:26:15;151521.53;;;5.22;100.00
23059;BME280;30585;51.502;7.218;2022-09-20T04:28:51;151531.88;;;5.26;100.00
23059;BME280;30585;51.502;7.218;2022-09-20T04:31:30;151531.88;;;5.26;100.00
23059;BME280;30585;51.502;7.218;2022-09-20T04:34:01;151583.38;;;5.46;100.00
23059;BME280;30585;51.502;7.218;2022-09-20T04:36:52;151583.38;;;5.46;100.00
23059;BME280;30585;51.502;7.218;2022-09-20T04:39:30;151602.66;;;5.54;100.00
23059;BME280;30585;51.502;7.218;2022-09-20T04:42:35;151609.13;;;5.57;100.00
23059;BME280;30585;51.502;7.218;2022-09-20T04:45:36;151637.41;;;5.68;100.00
23059;BME280;30585;51.502;7.218;2022-09-20T04:48:47;151643.91;;;5.71;100.00
23059;BME280;30585;51.502;7.218;2022-09-20T04:51:32;151663.19;;;5.78;100.00
23059;BME280;30585;51.502;7.218;2022-09-20T04:54:36;151683.78;;;5.87;100.00
23059;BME280;30585;51.502;7.218;2022-09-20T04:57:30;151695.41;;;5.91;100.00
23059;BME280;30585;51.502;7.218;2022-09-20T05:00:06;151718.66;;;6.01;100.00
23059;BME280;30585;51.502;7.218;2022-09-20T05:02:54;151727.66;;;6.04;100.00
23059;BME280;30585;51.502;7.218;2022-09-20T05:09:12;151768.88;;;6.21;100.00
23059;BME280;30585;51.502;7.218;2022-09-20T05:11:57;151792.06;;;6.30;100.00
23059;BME280;30585;51.502;7.218;2022-09-20T05:14:38;151794.66;;;6.31;100.00
23059;BME280;30585;51.502;7.218;2022-09-20T05:17:19;151803.66;;;6.35;100.00
23059;BME280;30585;51.502;7.218;2022-09-20T05:20:14;151807.50;;;6.36;100.00
23059;BME280;30585;51.502;7.218;2022-09-20T05:26:07;151815.25;;;6.39;100.00
23059;BME280;30585;51.502;7.218;2022-09-20T05:28:45;151816.53;;;6.40;100.00
23059;BME280;30585;51.502;7.218;2022-09-20T05:31:23;151829.44;;;6.45;100.00
23059;BME280;30585;51.502;7.218;2022-09-20T05:33:58;151835.88;;;6.48;100.00
23059;BME280;30585;51.502;7.218;2022-09-20T05:36:38;151855.22;;;6.55;100.00
23059;BME280;30585;51.502;7.218;2022-09-20T05:39:20;151865.50;;;6.60;100.00
23059;BME280;30585;51.502;7.218;2022-09-20T05:41:55;151877.09;;;6.64;100.00
23059;BME280;30585;51.502;7.218;2022-09-20T05:44:30;151888.69;;;6.69;100.00
23059;BME280;30585;51.502;7.218;2022-09-20T05:47:15;151906.78;;;6.76;100.00
23059;BME280;30585;51.502;7.218;2022-09-20T05:49:51;151923.47;;;6.83;100.00
23059;BME280;30585;51.502;7.218;2022-09-20T05:52:36;151931.22;;;6.86;100.00
23059;BME280;30585;51.502;7.218;2022-09-20T05:55:25;151946.72;;;6.92;100.00
23059;BME280;30585;51.502;7.218;2022-09-20T05:58:11;151958.34;;;6.97;100.00
23059;BME280;30585;51.502;7.218;2022-09-20T06:00:44;151977.63;;;7.05;100.00
23059;BME280;30585;51.502;7.218;2022-09-20T06:03:22;151993.13;;;7.11;100.00
23059;BME280;30585;51.502;7.218;2022-09-20T06:06:01;152008.59;;;7.17;100.00
23059;BME280;30585;51.502;7.218;2022-09-20T06:09:03;152026.63;;;7.24;100.00
23059;BME280;30585;51.502;7.218;2022-09-20T06:11:44;152051.16;;;7.34;100.00
23059;BME280;30585;51.502;7.218;2022-09-20T06:14:20;152070.47;;;7.42;100.00
23059;BME280;30585;51.502;7.218;2022-09-20T06:17:01;152109.19;;;7.57;100.00
23059;BME280;30585;51.502;7.218;2022-09-20T06:19:35;152124.63;;;7.63;100.00
23059;BME280;30585;51.502;7.218;2022-09-20T06:22:11;152106.59;;;7.56;100.00
23059;BME280;30585;51.502;7.218;2022-09-20T06:24:46;152172.38;;;7.83;100.00
23059;BME280;30585;51.502;7.218;2022-09-20T06:27:17;152196.88;;;7.92;100.00
23059;BME280;30585;51.502;7.218;2022-09-20T06:29:51;152218.81;;;8.01;100.00
23059;BME280;30585;51.502;7.218;2022-09-20T06:32:22;152244.63;;;8.11;100.00
23059;BME280;30585;51.502;7.218;2022-09-20T06:34:50;152269.09;;;8.21;100.00
23059;BME280;30585;51.502;7.218;2022-09-20T06:37:35;152292.34;;;8.31;100.00
23059;BME280;30585;51.502;7.218;2022-09-20T06:40:32;152323.31;;;8.43;100.00
23059;BME280;30585;51.502;7.218;2022-09-20T06:43:20;152356.88;;;8.56;100.00
23059;BME280;30585;51.502;7.218;2022-09-20T06:45:48;152387.88;;;8.69;100.00
23059;BME280;30585;51.502;7.218;2022-09-20T06:48:15;152431.75;;;8.86;100.00
23059;BME280;30585;51.502;7.218;2022-09-20T06:50:44;152467.94;;;9.01;100.00
23059;BME280;30585;51.502;7.218;2022-09-20T06:53:15;152487.31;;;9.09;100.00
23059;BME280;30585;51.502;7.218;2022-09-20T06:55:45;152498.94;;;9.13;100.00
23059;BME280;30585;51.502;7.218;2022-09-20T06:58:13;152504.06;;;9.15;100.00
23059;BME280;30585;51.502;7.218;2022-09-20T07:00:41;152510.53;;;9.18;100.00
23059;BME280;30585;51.502;7.218;2022-09-20T07:03:09;152518.25;;;9.21;100.00
23059;BME280;30585;51.502;7.218;2022-09-20T07:05:38;152527.28;;;9.25;100.00
23059;BME280;30585;51.502;7.218;2022-09-20T07:08:05;152533.78;;;9.27;100.00
23059;BME280;30585;51.502;7.218;2022-09-20T07:10:33;152545.41;;;9.32;100.00
23059;BME280;30585;51.502;7.218;2022-09-20T07:13:02;152560.88;;;9.38;100.00
23059;BME280;30585;51.502;7.218;2022-09-20T07:15:32;152580.28;;;9.46;100.00
23059;BME280;30585;51.502;7.218;2022-09-20T07:18:00;152594.47;;;9.51;100.00
23059;BME280;30585;51.502;7.218;2022-09-20T07:20:28;152607.38;;;9.57;100.00
23059;BME280;30585;51.502;7.218;2022-09-20T07:22:55;152616.41;;;9.60;100.00
23059;BME280;30585;51.502;7.218;2022-09-20T07:25:23;152633.22;;;9.67;100.00
23059;BME280;30585;51.502;7.218;2022-09-20T07:27:51;152652.59;;;9.75;100.00
23059;BME280;30585;51.502;7.218;2022-09-20T07:30:20;152674.53;;;9.83;100.00
23059;BME280;30585;51.502;7.218;2022-09-20T07:32:48;152673.25;;;9.83;100.00
23059;BME280;30585;51.502;7.218;2022-09-20T07:35:16;152684.88;;;9.88;100.00
23059;BME280;30585;51.502;7.218;2022-09-20T07:37:44;152722.34;;;10.03;100.00
23059;BME280;30585;51.502;7.218;2022-09-20T07:40:12;152748.19;;;10.13;100.00
23059;BME280;30585;51.502;7.218;2022-09-20T07:42:40;152754.63;;;10.16;100.00
23059;BME280;30585;51.502;7.218;2022-09-20T07:45:08;152805.00;;;10.36;100.00
23059;BME280;30585;51.502;7.218;2022-09-20T07:47:39;152856.75;;;10.56;100.00
23059;BME280;30585;51.502;7.218;2022-09-20T07:50:10;152855.50;;;10.56;100.00
23059;BME280;30585;51.502;7.218;2022-09-20T07:52:37;152903.28;;;10.75;100.00
23059;BME280;30585;51.502;7.218;2022-09-20T07:55:06;152889.06;;;10.69;100.00
23059;BME280;30585;51.502;7.218;2022-09-20T07:57:35;152917.50;;;10.81;100.00
23059;BME280;30585;51.502;7.218;2022-09-20T08:00:05;152912.34;;;10.79;100.00
23059;BME280;30585;51.502;7.218;2022-09-20T08:02:33;152945.97;;;10.92;100.00
23059;BME280;30585;51.502;7.218;2022-09-20T08:05:03;152970.50;;;11.02;100.00
23059;BME280;30585;51.502;7.218;2022-09-20T08:07:31;153018.38;;;11.21;100.00
23059;BME280;30585;51.502;7.218;2022-09-20T08:09:58;153006.72;;;11.16;100.00
23059;BME280;30585;51.502;7.218;2022-09-20T08:12:26;152995.09;;;11.12;100.00
23059;BME280;30585;51.502;7.218;2022-09-20T08:15:14;152977.00;;;11.04;100.00
23059;BME280;30585;51.502;7.218;2022-09-20T08:17:46;152980.88;;;11.06;100.00
23059;BME280;30585;51.502;7.218;2022-09-20T08:20:15;153037.78;;;11.29;100.00
23059;BME280;30585;51.502;7.218;2022-09-20T08:22:43;153095.97;;;11.52;100.00
23059;BME280;30585;51.502;7.218;2022-09-20T08:25:31;153111.47;;;11.58;100.00
23059;BME280;30585;51.502;7.218;2022-09-20T08:28:00;153132.16;;;11.66;100.00
23059;BME280;30585;51.502;7.218;2022-09-20T08:30:27;153154.16;;;11.75;100.00
23059;BME280;30585;51.502;7.218;2022-09-20T08:32:55;153124.44;;;11.63;100.00
23059;BME280;30585;51.502;7.218;2022-09-20T08:35:26;153160.63;;;11.78;100.00
23059;BME280;30585;51.502;7.218;2022-09-20T08:37:55;153141.19;;;11.70;100.00
23059;BME280;30585;51.502;7.218;2022-09-20T08:40:42;153167.06;;;11.80;100.00
23059;BME280;30585;51.502;7.218;2022-09-20T08:43:10;153173.56;;;11.83;100.00
23059;BME280;30585;51.502;7.218;2022-09-20T08:45:40;153204.59;;;11.95;100.00
23059;BME280;30585;51.502;7.218;2022-09-20T08:48:12;153213.69;;;11.99;100.00
23059;BME280;30585;51.502;7.218;2022-09-20T08:50:44;153191.69;;;11.90;100.00
23059;BME280;30585;51.502;7.218;2022-09-20T08:53:12;153222.75;;;12.03;100.00
23059;BME280;30585;51.502;7.218;2022-09-20T08:55:47;153225.31;;;12.04;100.00
23059;BME280;30585;51.502;7.218;2022-09-20T08:58:15;153235.69;;;12.08;100.00
23059;BME280;30585;51.502;7.218;2022-09-20T09:00:45;153260.25;;;12.18;100.00
23059;BME280;30585;51.502;7.218;2022-09-20T09:03:15;153257.72;;;12.17;100.00
23059;BME280;30585;51.502;7.218;2022-09-20T09:05:46;153268.03;;;12.21;100.00
23059;BME280;30585;51.502;7.218;2022-09-20T09:08:18;153300.38;;;12.34;100.00
23059;BME280;30585;51.502;7.218;2022-09-20T09:10:50;153304.28;;;12.35;100.00
23059;BME280;30585;51.502;7.218;2022-09-20T09:13:25;153312.03;;;12.38;100.00
23059;BME280;30585;51.502;7.218;2022-09-20T09:15:56;153296.50;;;12.32;100.00
23059;BME280;30585;51.502;7.218;2022-09-20T09:18:32;153346.97;;;12.52;100.00
23059;BME280;30585;51.502;7.218;2022-09-20T09:21:03;153353.47;;;12.55;100.00
23059;BME280;30585;51.502;7.218;2022-09-20T09:23:39;153372.84;;;12.62;100.00
23059;BME280;30585;51.502;7.218;2022-09-20T09:26:16;153388.41;;;12.69;100.00
23059;BME280;30585;51.502;7.218;2022-09-20T09:28:44;153453.13;;;12.94;100.00
23059;BME280;30585;51.502;7.218;2022-09-20T09:31:20;153530.81;;;13.25;100.00
23059;BME280;30585;51.502;7.218;2022-09-20T09:33:51;153477.69;;;13.04;100.00
23059;BME280;30585;51.502;7.218;2022-09-20T09:36:22;153551.53;;;13.34;100.00
23059;BME280;30585;51.502;7.218;2022-09-20T09:39:14;153568.41;;;13.40;100.00
23059;BME280;30585;51.502;7.218;2022-09-20T09:41:42;153611.13;;;13.58;100.00
23059;BME280;30585;51.502;7.218;2022-09-20T09:44:20;153587.81;;;13.48;100.00
23059;BME280;30585;51.502;7.218;2022-09-20T09:46:49;153622.78;;;13.62;100.00
23059;BME280;30585;51.502;7.218;2022-09-20T09:49:20;153625.38;;;13.63;100.00
23059;BME280;30585;51.502;7.218;2022-09-20T09:52:08;153595.59;;;13.51;100.00
23059;BME280;30585;51.502;7.218;2022-09-20T09:54:39;153552.81;;;13.34;100.00
23059;BME280;30585;51.502;7.218;2022-09-20T09:57:23;153503.59;;;13.15;100.00
23059;BME280;30585;51.502;7.218;2022-09-20T10:00:03;153488.06;;;13.08;100.00
23059;BME280;30585;51.502;7.218;2022-09-20T10:02:59;153528.22;;;13.24;100.00
23059;BME280;30585;51.502;7.218;2022-09-20T10:05:38;153561.84;;;13.38;100.00
23059;BME280;30585;51.502;7.218;2022-09-20T10:08:20;153591.72;;;13.50;100.00
23059;BME280;30585;51.502;7.218;2022-09-20T10:11:03;153605.97;;;13.55;100.00
23059;BME280;30585;51.502;7.218;2022-09-20T10:13:37;153655.19;;;13.75;100.00
23059;BME280;30585;51.502;7.218;2022-09-20T10:16:13;153655.19;;;13.75;100.00
23059;BME280;30585;51.502;7.218;2022-09-20T10:18:50;153673.31;;;13.82;100.00
23059;BME280;30585;51.502;7.218;2022-09-20T10:21:30;153668.13;;;13.80;100.00
23059;BME280;30585;51.502;7.218;2022-09-20T10:24:25;153665.53;;;13.79;100.00
23059;BME280;30585;51.502;7.218;2022-09-20T10:27:08;153625.38;;;13.63;100.00
23059;BME280;30585;51.502;7.218;2022-09-20T10:29:47;153638.34;;;13.68;100.00
23059;BME280;30585;51.502;7.218;2022-09-20T10:32:27;153625.38;;;13.63;100.00
23059;BME280;30585;51.502;7.218;2022-09-20T10:35:11;153618.91;;;13.61;100.00
23059;BME280;30585;51.502;7.218;2022-09-20T10:38:00;153656.47;;;13.76;100.00
23059;BME280;30585;51.502;7.218;2022-09-20T10:40:34;153622.78;;;13.62;100.00
23059;BME280;30585;51.502;7.218;2022-09-20T10:43:33;153631.84;;;13.66;100.00
23059;BME280;30585;51.502;7.218;2022-09-20T10:46:11;153596.88;;;13.52;100.00
23059;BME280;30585;51.502;7.218;2022-09-20T10:49:03;153627.97;;;13.64;100.00
23059;BME280;30585;51.502;7.218;2022-09-20T10:51:40;153598.19;;;13.52;100.00
23059;BME280;30585;51.502;7.218;2022-09-20T10:54:24;153656.47;;;13.76;100.00
23059;BME280;30585;51.502;7.218;2022-09-20T10:57:06;153675.91;;;13.83;100.00
23059;BME280;30585;51.502;7.218;2022-09-20T10:59:42;153723.81;;;14.02;100.00
23059;BME280;30585;51.502;7.218;2022-09-20T11:02:22;153748.47;;;14.12;100.00
23059;BME280;30585;51.502;7.218;2022-09-20T11:05:17;153683.66;;;13.86;100.00
23059;BME280;30585;51.502;7.218;2022-09-20T11:07:55;153789.91;;;14.29;100.00
23059;BME280;30585;51.502;7.218;2022-09-20T11:10:30;153664.25;;;13.79;97.51
23059;BME280;30585;51.502;7.218;2022-09-20T11:13:05;153831.34;;;14.45;100.00
23059;BME280;30585;51.502;7.218;2022-09-20T11:15:38;153846.94;;;14.52;98.27
23059;BME280;30585;51.502;7.218;2022-09-20T11:18:13;153872.81;;;14.62;95.98
23059;BME280;30585;51.502;7.218;2022-09-20T11:20:50;153870.25;;;14.61;92.29
23059;BME280;30585;51.502;7.218;2022-09-20T11:23:23;153880.59;;;14.65;98.09
23059;BME280;30585;51.502;7.218;2022-09-20T11:25:58;153911.78;;;14.77;91.10
23059;BME280;30585;51.502;7.218;2022-09-20T11:28:31;153907.91;;;14.76;92.41
23059;BME280;30585;51.502;7.218;2022-09-20T11:31:05;153915.66;;;14.79;98.60
23059;BME280;30585;51.502;7.218;2022-09-20T11:33:36;153906.59;;;14.75;94.04
23059;BME280;30585;51.502;7.218;2022-09-20T11:36:09;154042.72;;;15.30;97.03
23059;BME280;30585;51.502;7.218;2022-09-20T11:38:46;154075.13;;;15.42;94.46
23059;BME280;30585;51.502;7.218;2022-09-20T11:41:22;153962.31;;;14.98;93.32
23059;BME280;30585;51.502;7.218;2022-09-20T11:43:57;154033.63;;;15.26;91.86
23059;BME280;30585;51.502;7.218;2022-09-20T11:46:29;154029.72;;;15.24;89.85
23059;BME280;30585;51.502;7.218;2022-09-20T11:49:02;153990.84;;;15.09;83.58
23059;BME280;30585;51.502;7.218;2022-09-20T11:54:56;153994.72;;;15.10;92.48
23059;BME280;30585;51.502;7.218;2022-09-20T11:57:31;154005.09;;;15.15;92.85
23059;BME280;30585;51.502;7.218;2022-09-20T12:00:03;153992.16;;;15.09;94.91
23059;BME280;30585;51.502;7.218;2022-09-20T12:02:37;154002.50;;;15.14;95.92
23059;BME280;30585;51.502;7.218;2022-09-20T12:05:24;154002.50;;;15.14;86.81
23059;BME280;30585;51.502;7.218;2022-09-20T12:07:55;154020.66;;;15.21;90.49
23059;BME280;30585;51.502;7.218;2022-09-20T12:10:26;154139.94;;;15.68;88.48
23059;BME280;30585;51.502;7.218;2022-09-20T12:12:57;154168.47;;;15.80;88.87
23059;BME280;30585;51.502;7.218;2022-09-20T12:15:29;154152.94;;;15.73;92.13
23059;BME280;30585;51.502;7.218;2022-09-20T12:18:29;154147.75;;;15.71;89.81
23059;BME280;30585;51.502;7.218;2022-09-20T12:21:10;154066.03;;;15.39;89.53
23059;BME280;30585;51.502;7.218;2022-09-20T12:26:50;154304.75;;;16.34;86.30
23059;BME280;30585;51.502;7.218;2022-09-20T12:29:53;154239.91;;;16.08;85.53
23059;BME280;30585;51.502;7.218;2022-09-20T12:32:33;154256.78;;;16.15;87.16
23059;BME280;30585;51.502;7.218;2022-09-20T12:38:36;154136.06;;;15.67;87.60
23059;BME280;30585;51.502;7.218;2022-09-20T12:41:08;154147.75;;;15.71;83.57
23059;BME280;30585;51.502;7.218;2022-09-20T12:43:50;153968.81;;;15.00;87.05
23059;BME280;30585;51.502;7.218;2022-09-20T12:46:22;153988.25;;;15.08;90.91
23059;BME280;30585;51.502;7.218;2022-09-20T12:49:10;154097.19;;;15.51;92.95
23059;BME280;30585;51.502;7.218;2022-09-20T12:51:58;154018.03;;;15.20;90.53
23059;BME280;30585;51.502;7.218;2022-09-20T12:54:51;154186.72;;;15.87;87.33
23059;BME280;30585;51.502;7.218;2022-09-20T12:57:28;154178.94;;;15.84;87.78
23059;BME280;30585;51.502;7.218;2022-09-20T13:00:00;154261.91;;;16.17;86.71
23059;BME280;30585;51.502;7.218;2022-09-20T13:02:58;154274.91;;;16.22;83.94
23059;BME280;30585;51.502;7.218;2022-09-20T13:05:34;154421.53;;;16.80;80.70
23059;BME280;30585;51.502;7.218;2022-09-20T13:08:15;154407.25;;;16.75;78.73
23059;BME280;30585;51.502;7.218;2022-09-20T13:10:47;154559.22;;;17.35;80.32
23059;BME280;30585;51.502;7.218;2022-09-20T13:13:26;154661.78;;;17.76;80.82
23059;BME280;30585;51.502;7.218;2022-09-20T13:15:55;154673.47;;;17.81;83.17
23059;BME280;30585;51.502;7.218;2022-09-20T13:18:24;154689.03;;;17.87;77.66
23059;BME280;30585;51.502;7.218;2022-09-20T13:20:56;154615.03;;;17.57;73.29
23059;BME280;30585;51.502;7.218;2022-09-20T13:23:27;154483.91;;;17.05;76.90
23059;BME280;30585;51.502;7.218;2022-09-20T13:25:57;154454.03;;;16.93;76.00
23059;BME280;30585;51.502;7.218;2022-09-20T13:28:32;154407.25;;;16.75;71.29
23059;BME280;30585;51.502;7.218;2022-09-20T13:31:23;154359.25;;;16.56;69.17
23059;BME280;30585;51.502;7.218;2022-09-20T13:33:52;154341.09;;;16.48;69.67
23059;BME280;30585;51.502;7.218;2022-09-20T13:36:27;154291.78;;;16.29;69.96
23059;BME280;30585;51.502;7.218;2022-09-20T13:38:56;154282.72;;;16.25;69.70
23059;BME280;30585;51.502;7.218;2022-09-20T13:41:26;154224.28;;;16.02;68.49
23059;BME280;30585;51.502;7.218;2022-09-20T13:43:58;154190.59;;;15.88;70.36
23059;BME280;30585;51.502;7.218;2022-09-20T13:46:28;154190.59;;;15.88;77.78
23059;BME280;30585;51.502;7.218;2022-09-20T13:49:08;154151.63;;;15.73;76.34
23059;BME280;30585;51.502;7.218;2022-09-20T13:51:40;154107.53;;;15.55;75.87
23059;BME280;30585;51.502;7.218;2022-09-20T13:54:26;154067.31;;;15.39;76.08
23059;BME280;30585;51.502;7.218;2022-09-20T13:56:58;154056.97;;;15.35;73.41
23059;BME280;30585;51.502;7.218;2022-09-20T13:59:30;154028.44;;;15.24;75.56
23059;BME280;30585;51.502;7.218;2022-09-20T14:01:59;154028.44;;;15.24;77.98